createdAt,value
2023-05-20T00:02:25.913Z,18.90
2023-05-20T00:04:52.944Z,18.90
2023-05-20T00:07:19.764Z,18.90
2023-05-20T00:09:46.583Z,18.90
2023-05-20T00:12:13.424Z,18.90
2023-05-20T00:14:40.290Z,18.80
2023-05-20T00:17:07.203Z,18.80
2023-05-20T00:19:33.992Z,18.70
2023-05-20T00:22:00.882Z,18.80
2023-05-20T00:24:28.052Z,18.80
2023-05-20T00:26:54.835Z,18.70
2023-05-20T00:29:22.399Z,18.70
2023-05-20T00:31:49.249Z,18.60
2023-05-20T00:34:16.118Z,18.60
2023-05-20T00:36:43.101Z,17.20
2023-05-20T00:39:09.992Z,18.60
2023-05-20T00:41:37.142Z,18.60
2023-05-20T00:44:04.011Z,18.50
2023-05-20T00:46:31.201Z,18.60
2023-05-20T00:48:58.115Z,18.50
2023-05-20T00:51:25.006Z,18.50
2023-05-20T00:53:52.650Z,18.50
2023-05-20T00:56:22.131Z,18.50
2023-05-20T00:58:49.962Z,18.50
2023-05-20T01:01:16.841Z,18.50
2023-05-20T01:03:43.764Z,18.50
2023-05-20T01:06:10.983Z,18.40
2023-05-20T01:08:37.853Z,18.40
2023-05-20T01:11:23.862Z,18.40
2023-05-20T01:13:57.610Z,18.30
2023-05-20T01:16:25.343Z,18.30
2023-05-20T01:18:55.948Z,18.40
2023-05-20T01:21:23.204Z,18.30
2023-05-20T01:23:50.045Z,18.30
2023-05-20T01:26:18.746Z,18.20
2023-05-20T01:28:46.423Z,18.20
2023-05-20T01:31:24.868Z,18.20
2023-05-20T01:33:56.376Z,18.20
2023-05-20T01:36:23.944Z,18.20
2023-05-20T01:38:52.203Z,18.10
2023-05-20T01:41:19.709Z,18.10
2023-05-20T01:43:46.829Z,18.10
2023-05-20T01:46:15.212Z,18.00
2023-05-20T01:48:42.560Z,18.00
2023-05-20T01:51:09.407Z,18.00
2023-05-20T01:53:36.958Z,18.00
2023-05-20T01:56:05.866Z,18.00
2023-05-20T01:58:32.737Z,18.00
2023-05-20T02:01:00.113Z,17.90
2023-05-20T02:03:27.120Z,18.00
2023-05-20T02:05:54.767Z,17.90
2023-05-20T02:08:23.018Z,17.90
2023-05-20T02:10:49.982Z,17.80
2023-05-20T02:13:16.881Z,17.80
2023-05-20T02:15:43.811Z,17.80
2023-05-20T02:18:12.637Z,17.80
2023-05-20T02:20:39.759Z,17.80
2023-05-20T02:23:06.805Z,17.70
2023-05-20T02:25:33.962Z,17.80
2023-05-20T02:28:01.542Z,17.80
2023-05-20T02:30:28.435Z,17.80
2023-05-20T02:32:57.928Z,17.70
2023-05-20T02:35:24.918Z,17.70
2023-05-20T02:37:51.731Z,17.70
2023-05-20T02:40:19.363Z,17.70
2023-05-20T02:42:46.884Z,17.70
2023-05-20T02:45:13.816Z,17.60
2023-05-20T02:47:40.765Z,17.60
2023-05-20T02:50:08.893Z,17.60
2023-05-20T02:52:36.745Z,17.60
2023-05-20T02:55:04.634Z,17.60
2023-05-20T02:57:32.451Z,17.60
2023-05-20T02:59:59.298Z,17.60
2023-05-20T03:02:26.388Z,17.60
2023-05-20T03:04:54.943Z,17.60
2023-05-20T03:07:22.468Z,17.50
2023-05-20T03:09:49.470Z,17.50
2023-05-20T03:12:17.830Z,17.50
2023-05-20T03:14:44.779Z,17.50
2023-05-20T03:17:11.691Z,17.50
2023-05-20T03:19:38.535Z,17.50
2023-05-20T03:22:06.065Z,17.40
2023-05-20T03:24:33.515Z,17.40
2023-05-20T03:27:00.383Z,17.40
2023-05-20T03:29:27.171Z,17.40
2023-05-20T03:31:54.281Z,17.50
2023-05-20T03:34:21.284Z,17.40
2023-05-20T03:36:51.832Z,17.40
2023-05-20T03:39:18.612Z,17.40
2023-05-20T03:41:45.851Z,17.30
2023-05-20T03:44:13.110Z,17.40
2023-05-20T03:46:40.807Z,17.30
2023-05-20T03:49:07.966Z,17.30
2023-05-20T03:51:34.884Z,17.30
2023-05-20T03:54:07.047Z,17.30
2023-05-20T03:56:34.340Z,17.20
2023-05-20T03:59:01.494Z,17.20
2023-05-20T04:01:28.772Z,17.30
2023-05-20T04:03:55.780Z,17.20
2023-05-20T04:06:22.784Z,17.20
2023-05-20T04:08:50.809Z,17.20
2023-05-20T04:11:17.649Z,17.20
2023-05-20T04:13:44.544Z,17.30
2023-05-20T04:16:11.418Z,17.30
2023-05-20T04:18:39.295Z,17.30
2023-05-20T04:21:06.422Z,17.30
2023-05-20T04:23:33.326Z,17.30
2023-05-20T04:26:02.512Z,17.30
2023-05-20T04:28:31.476Z,17.30
2023-05-20T04:31:00.283Z,17.30
2023-05-20T04:33:27.510Z,17.30
2023-05-20T04:35:58.618Z,17.30
2023-05-20T04:38:32.640Z,17.40
2023-05-20T04:41:01.901Z,17.40
2023-05-20T04:43:33.817Z,17.40
2023-05-20T04:46:01.494Z,17.40
2023-05-20T04:48:28.979Z,17.40
2023-05-20T04:50:55.818Z,17.50
2023-05-20T04:53:23.418Z,17.50
2023-05-20T04:55:53.896Z,17.50
2023-05-20T04:58:24.306Z,17.50
2023-05-20T05:00:52.098Z,14.80
2023-05-20T05:03:19.486Z,17.50
2023-05-20T05:05:46.325Z,17.70
2023-05-20T05:08:13.180Z,17.80
2023-05-20T05:10:46.501Z,17.60
2023-05-20T05:13:13.419Z,17.60
2023-05-20T05:15:40.278Z,17.60
2023-05-20T05:18:07.252Z,17.60
2023-05-20T05:20:35.829Z,17.70
2023-05-20T05:23:02.932Z,17.80
2023-05-20T05:25:30.123Z,17.70
2023-05-20T05:27:59.593Z,17.70
2023-05-20T05:30:27.406Z,17.80
2023-05-20T05:32:54.379Z,17.80
2023-05-20T05:35:22.212Z,17.80
2023-05-20T05:37:49.289Z,17.90
2023-05-20T05:40:16.329Z,17.80
2023-05-20T05:42:43.305Z,17.90
2023-05-20T05:45:11.027Z,17.90
2023-05-20T05:47:37.987Z,17.90
2023-05-20T05:50:05.285Z,21.30
2023-05-20T05:52:33.880Z,18.00
2023-05-20T05:55:02.988Z,18.10
2023-05-20T05:57:30.893Z,18.00
2023-05-20T05:59:58.561Z,18.00
2023-05-20T06:02:25.621Z,18.00
2023-05-20T06:04:54.101Z,18.10
2023-05-20T06:07:21.231Z,18.10
2023-05-20T06:09:48.079Z,18.10
2023-05-20T06:12:14.921Z,18.20
2023-05-20T06:14:41.742Z,18.10
2023-05-20T06:17:08.628Z,18.20
2023-05-20T06:19:35.719Z,18.30
2023-05-20T06:22:02.707Z,18.20
2023-05-20T06:24:29.539Z,18.30
2023-05-20T06:26:56.455Z,18.30
2023-05-20T06:29:24.099Z,18.40
2023-05-20T06:31:50.972Z,18.30
2023-05-20T06:34:17.800Z,18.40
2023-05-20T06:36:44.715Z,18.50
2023-05-20T06:39:12.539Z,18.40
2023-05-20T06:41:42.347Z,18.40
2023-05-20T06:44:10.755Z,18.50
2023-05-20T06:46:52.953Z,18.50
2023-05-20T06:49:20.241Z,18.50
2023-05-20T06:51:48.030Z,18.60
2023-05-20T06:54:14.903Z,18.60
2023-05-20T06:56:42.519Z,18.50
2023-05-20T06:59:09.347Z,18.60
2023-05-20T07:01:37.215Z,18.60
2023-05-20T07:04:05.158Z,18.70
2023-05-20T07:06:32.637Z,18.70
2023-05-20T07:09:00.978Z,18.70
2023-05-20T07:11:27.883Z,18.70
2023-05-20T07:13:55.103Z,18.70
2023-05-20T07:16:23.612Z,18.70
2023-05-20T07:18:54.101Z,18.70
2023-05-20T07:21:21.359Z,19.20
2023-05-20T07:23:58.647Z,18.80
2023-05-20T07:26:25.541Z,18.80
2023-05-20T07:28:52.544Z,18.80
2023-05-20T07:31:19.690Z,20.30
2023-05-20T07:33:46.679Z,18.90
2023-05-20T07:36:13.617Z,18.90
2023-05-20T07:38:49.977Z,19.00
2023-05-20T07:41:28.829Z,19.00
2023-05-20T07:43:55.837Z,19.00
2023-05-20T07:46:22.785Z,19.00
2023-05-20T07:48:49.719Z,19.20
2023-05-20T07:51:17.290Z,19.20
2023-05-20T07:53:44.151Z,19.20
2023-05-20T07:56:11.606Z,19.30
2023-05-20T07:58:41.967Z,19.40
2023-05-20T08:01:10.119Z,19.30
2023-05-20T08:03:37.215Z,19.40
2023-05-20T08:06:09.189Z,19.50
2023-05-20T08:08:36.276Z,19.50
2023-05-20T08:11:10.010Z,19.60
2023-05-20T08:13:38.340Z,19.60
2023-05-20T08:16:06.435Z,19.70
2023-05-20T08:18:36.655Z,19.70
2023-05-20T08:21:05.344Z,19.80
2023-05-20T08:23:35.873Z,19.90
2023-05-20T08:26:04.672Z,18.40
2023-05-20T08:28:33.479Z,20.00
2023-05-20T08:31:02.450Z,20.10
2023-05-20T08:33:30.858Z,20.20
2023-05-20T08:35:57.707Z,20.20
2023-05-20T08:38:24.557Z,20.30
2023-05-20T08:40:56.861Z,20.40
2023-05-20T08:43:25.145Z,20.40
2023-05-20T08:45:52.786Z,20.50
2023-05-20T08:48:23.428Z,20.60
2023-05-20T08:50:53.670Z,20.60
2023-05-20T08:53:24.046Z,20.70
2023-05-20T08:56:00.760Z,20.70
2023-05-20T08:58:29.413Z,20.90
2023-05-20T09:00:56.519Z,17.80
2023-05-20T09:03:24.395Z,20.80
2023-05-20T09:05:51.896Z,21.00
2023-05-20T09:08:18.839Z,21.10
2023-05-20T09:10:45.688Z,21.10
2023-05-20T09:13:12.614Z,21.10
2023-05-20T09:15:40.414Z,21.20
2023-05-20T09:18:08.206Z,21.20
2023-05-20T09:20:37.421Z,21.20
2023-05-20T09:23:07.178Z,21.20
2023-05-20T09:25:35.414Z,21.30
2023-05-20T09:28:04.989Z,21.30
2023-05-20T09:30:32.843Z,21.40
2023-05-20T09:33:01.162Z,21.40
2023-05-20T09:35:28.612Z,21.50
2023-05-20T09:37:57.256Z,21.50
2023-05-20T09:40:29.277Z,21.50
2023-05-20T09:43:11.469Z,23.20
2023-05-20T09:45:39.740Z,21.60
2023-05-20T09:48:10.781Z,20.20
2023-05-20T09:50:38.292Z,21.60
2023-05-20T09:53:06.499Z,21.60
2023-05-20T09:55:34.323Z,21.60
2023-05-20T09:58:03.157Z,21.70
2023-05-20T10:00:30.746Z,21.70
2023-05-20T10:02:58.910Z,21.80
2023-05-20T10:05:33.556Z,21.80
2023-05-20T10:08:23.628Z,21.80
2023-05-20T10:10:53.454Z,21.90
2023-05-20T10:13:48.703Z,21.90
2023-05-20T10:16:30.616Z,22.00
2023-05-20T10:19:16.397Z,22.00
2023-05-20T10:21:43.387Z,22.10
2023-05-20T10:24:11.737Z,22.20
2023-05-20T10:26:40.823Z,22.20
2023-05-20T10:29:18.177Z,22.30
2023-05-20T10:31:56.935Z,22.40
2023-05-20T10:34:24.035Z,22.40
2023-05-20T10:36:57.554Z,22.50
2023-05-20T10:39:30.320Z,22.50
2023-05-20T10:42:10.628Z,22.60
2023-05-20T10:44:42.457Z,22.60
2023-05-20T10:47:24.474Z,22.80
2023-05-20T10:49:53.132Z,22.80
2023-05-20T10:52:20.708Z,22.90
2023-05-20T10:54:54.425Z,23.00
2023-05-20T10:57:21.947Z,23.00
2023-05-20T10:59:49.543Z,23.00
2023-05-20T11:02:17.477Z,23.10
2023-05-20T11:04:45.230Z,23.20
2023-05-20T11:07:12.449Z,23.20
2023-05-20T11:09:39.641Z,23.20
2023-05-20T11:12:06.780Z,23.30
2023-05-20T11:14:35.465Z,23.30
2023-05-20T11:17:02.459Z,23.40
2023-05-20T11:19:29.401Z,23.40
2023-05-20T11:21:56.379Z,23.50
2023-05-20T11:24:27.789Z,23.50
2023-05-20T11:26:56.234Z,23.60
2023-05-20T11:29:23.405Z,23.60
2023-05-20T11:31:53.581Z,23.60
2023-05-20T11:34:24.124Z,23.70
2023-05-20T11:36:59.392Z,23.70
2023-05-20T11:39:30.246Z,23.80
2023-05-20T11:41:58.080Z,23.80
2023-05-20T11:44:25.438Z,23.90
2023-05-20T11:46:59.059Z,23.90
2023-05-20T11:49:26.046Z,23.90
2023-05-20T11:51:52.850Z,24.00
2023-05-20T11:54:23.386Z,23.90
2023-05-20T11:56:50.231Z,24.10
2023-05-20T11:59:17.044Z,24.10
2023-05-20T12:01:44.482Z,24.20
2023-05-20T12:04:13.785Z,24.20
2023-05-20T12:06:42.881Z,24.30
2023-05-20T12:09:10.414Z,24.30
2023-05-20T12:11:40.962Z,24.30
2023-05-20T12:14:08.962Z,24.40
2023-05-20T12:16:37.350Z,24.40
2023-05-20T12:19:04.906Z,24.60
2023-05-20T12:21:32.071Z,24.60
2023-05-20T12:24:02.111Z,24.60
2023-05-20T12:26:30.118Z,24.70
2023-05-20T12:28:57.217Z,24.70
2023-05-20T12:31:25.780Z,24.80
2023-05-20T12:33:52.731Z,24.90
2023-05-20T12:36:19.819Z,24.90
2023-05-20T12:38:47.081Z,25.00
2023-05-20T12:41:14.170Z,25.10
2023-05-20T12:43:41.049Z,25.10
2023-05-20T12:46:08.164Z,25.20
2023-05-20T12:48:35.039Z,25.30
2023-05-20T12:51:01.859Z,25.40
2023-05-20T12:53:28.694Z,25.40
2023-05-20T12:55:55.600Z,27.30
2023-05-20T12:58:22.525Z,25.50
2023-05-20T13:00:49.428Z,25.60
2023-05-20T13:03:16.583Z,25.60
2023-05-20T13:05:43.902Z,25.70
2023-05-20T13:08:12.581Z,25.80
2023-05-20T13:10:39.441Z,25.80
2023-05-20T13:13:06.344Z,25.80
2023-05-20T13:15:33.717Z,25.80
2023-05-20T13:18:01.581Z,25.90
2023-05-20T13:20:30.114Z,25.90
2023-05-20T13:22:57.089Z,25.90
2023-05-20T13:25:23.962Z,25.90
2023-05-20T13:27:50.979Z,25.90
2023-05-20T13:30:17.955Z,25.90
2023-05-20T13:32:45.126Z,25.90
2023-05-20T13:35:13.153Z,25.90
2023-05-20T13:37:40.088Z,25.90
2023-05-20T13:40:07.668Z,25.90
2023-05-20T13:42:35.890Z,25.90
2023-05-20T13:45:02.895Z,25.90
2023-05-20T13:47:29.895Z,25.90
2023-05-20T13:49:56.818Z,26.00
2023-05-20T13:52:23.675Z,26.10
2023-05-20T13:54:50.534Z,22.80
2023-05-20T13:57:17.468Z,26.20
2023-05-20T13:59:44.289Z,26.20
2023-05-20T14:02:11.698Z,26.40
2023-05-20T14:04:39.934Z,26.40
2023-05-20T14:07:09.513Z,26.50
2023-05-20T14:09:37.128Z,26.60
2023-05-20T14:12:04.948Z,26.70
2023-05-20T14:14:31.868Z,26.70
2023-05-20T14:16:58.635Z,26.80
2023-05-20T14:19:26.968Z,26.80
2023-05-20T14:21:55.075Z,26.80
2023-05-20T14:24:23.742Z,26.80
2023-05-20T14:26:50.863Z,26.90
2023-05-20T14:29:17.798Z,26.90
2023-05-20T14:31:45.123Z,27.00
2023-05-20T14:34:12.274Z,27.00
2023-05-20T14:36:39.357Z,27.10
2023-05-20T14:39:06.186Z,27.10
2023-05-20T14:41:33.032Z,27.20
2023-05-20T14:43:59.879Z,27.20
2023-05-20T14:46:26.841Z,27.20
2023-05-20T14:48:54.507Z,27.30
2023-05-20T14:51:21.424Z,28.90
2023-05-20T14:53:48.259Z,27.40
2023-05-20T14:56:15.041Z,27.50
2023-05-20T14:58:42.037Z,27.60
2023-05-20T15:01:09.139Z,27.60
2023-05-20T15:03:36.095Z,27.70
2023-05-20T15:06:03.133Z,27.70
2023-05-20T15:08:29.924Z,27.80
2023-05-20T15:10:56.956Z,27.90
2023-05-20T15:13:23.853Z,27.90
2023-05-20T15:15:50.712Z,27.90
2023-05-20T15:18:17.477Z,28.00
2023-05-20T15:20:44.730Z,28.00
2023-05-20T15:23:12.650Z,28.10
2023-05-20T15:25:39.460Z,28.20
2023-05-20T15:28:06.367Z,28.20
2023-05-20T15:30:33.433Z,28.30
2023-05-20T15:33:01.213Z,28.30
2023-05-20T15:35:28.204Z,28.30
2023-05-20T15:37:55.030Z,28.30
2023-05-20T15:40:22.622Z,28.30
2023-05-20T15:42:49.569Z,28.40
2023-05-20T15:45:16.521Z,28.40
2023-05-20T15:47:43.359Z,28.40
2023-05-20T15:50:11.389Z,28.40
2023-05-20T15:52:38.483Z,28.40
2023-05-20T15:55:06.036Z,28.40
2023-05-20T15:57:32.880Z,28.40
2023-05-20T15:59:59.773Z,28.40
2023-05-20T16:02:26.849Z,28.30
2023-05-20T16:04:53.956Z,28.30
2023-05-20T16:07:21.292Z,28.30
2023-05-20T16:09:48.277Z,28.20
2023-05-20T16:12:16.943Z,28.20
2023-05-20T16:14:44.815Z,28.10
2023-05-20T16:17:12.460Z,28.10
2023-05-20T16:19:39.407Z,28.00
2023-05-20T16:22:06.365Z,28.00
2023-05-20T16:24:33.280Z,27.90
2023-05-20T16:27:00.472Z,27.90
2023-05-20T16:29:27.396Z,27.80
2023-05-20T16:31:54.292Z,27.80
2023-05-20T16:34:21.148Z,27.70
2023-05-20T16:36:47.992Z,27.60
2023-05-20T16:39:15.242Z,27.50
2023-05-20T16:41:43.034Z,27.50
2023-05-20T16:44:10.418Z,27.30
2023-05-20T16:46:37.293Z,27.30
2023-05-20T16:49:04.195Z,27.20
2023-05-20T16:51:31.393Z,27.10
2023-05-20T16:53:58.221Z,27.00
2023-05-20T16:56:25.132Z,27.00
2023-05-20T16:58:53.099Z,26.90
2023-05-20T17:01:21.476Z,26.80
2023-05-20T17:03:48.657Z,26.70
2023-05-20T17:06:15.651Z,26.70
2023-05-20T17:08:42.555Z,26.60
2023-05-20T17:11:09.500Z,26.50
2023-05-20T17:13:36.582Z,26.50
2023-05-20T17:16:03.556Z,26.40
2023-05-20T17:18:30.376Z,26.40
2023-05-20T17:20:57.221Z,26.30
2023-05-20T17:23:24.386Z,26.40
2023-05-20T17:25:51.321Z,26.20
2023-05-20T17:28:18.233Z,26.10
2023-05-20T17:30:45.302Z,26.10
2023-05-20T17:33:12.393Z,26.10
2023-05-20T17:35:39.284Z,26.00
2023-05-20T17:38:06.072Z,26.00
2023-05-20T17:40:33.134Z,26.00
2023-05-20T17:43:00.160Z,24.50
2023-05-20T17:45:26.984Z,26.00
2023-05-20T17:47:53.887Z,25.90
2023-05-20T17:50:20.875Z,26.00
2023-05-20T17:52:47.708Z,26.00
2023-05-20T17:55:14.699Z,26.00
2023-05-20T17:57:41.629Z,26.00
2023-05-20T18:00:09.341Z,25.90
2023-05-20T18:02:38.379Z,25.90
2023-05-20T18:05:06.497Z,25.90
2023-05-20T18:07:34.515Z,25.80
2023-05-20T18:10:01.619Z,22.60
2023-05-20T18:12:28.463Z,25.80
2023-05-20T18:14:55.441Z,25.70
2023-05-20T18:17:22.380Z,25.70
2023-05-20T18:19:49.265Z,25.60
2023-05-20T18:22:16.190Z,25.60
2023-05-20T18:24:43.126Z,25.50
2023-05-20T18:27:10.039Z,25.40
2023-05-20T18:29:36.889Z,25.50
2023-05-20T18:32:04.037Z,25.30
2023-05-20T18:34:33.127Z,25.30
2023-05-20T18:37:00.274Z,25.20
2023-05-20T18:39:27.272Z,25.20
2023-05-20T18:41:54.136Z,25.10
2023-05-20T18:44:21.032Z,25.00
2023-05-20T18:46:47.912Z,25.00
2023-05-20T18:49:14.748Z,25.10
2023-05-20T18:51:41.958Z,24.90
2023-05-20T18:54:08.786Z,24.90
2023-05-20T18:56:36.189Z,24.80
2023-05-20T18:59:03.279Z,24.70
2023-05-20T19:01:30.411Z,24.60
2023-05-20T19:03:57.387Z,23.70
2023-05-20T19:06:24.399Z,24.50
2023-05-20T19:08:51.429Z,24.50
2023-05-20T19:11:18.383Z,23.40
2023-05-20T19:13:45.413Z,24.40
2023-05-20T19:16:12.238Z,24.30
2023-05-20T19:18:39.270Z,24.30
2023-05-20T19:21:06.312Z,24.20
2023-05-20T19:23:33.213Z,24.10
2023-05-20T19:26:00.060Z,24.10
2023-05-20T19:28:26.895Z,24.00
2023-05-20T19:30:53.890Z,24.00
2023-05-20T19:33:21.378Z,24.00
2023-05-20T19:35:48.940Z,23.90
2023-05-20T19:38:15.893Z,23.80
2023-05-20T19:40:44.718Z,23.80
2023-05-20T19:43:11.561Z,23.80
2023-05-20T19:45:38.549Z,23.70
2023-05-20T19:48:06.065Z,23.60
2023-05-20T19:50:33.432Z,23.60
2023-05-20T19:53:00.462Z,23.60
2023-05-20T19:55:27.466Z,23.50
2023-05-20T19:57:54.333Z,23.50
2023-05-20T20:00:21.657Z,23.50
2023-05-20T20:02:49.762Z,23.50
2023-05-20T20:05:16.860Z,23.50
2023-05-20T20:07:43.727Z,23.40
2023-05-20T20:10:11.027Z,23.30
2023-05-20T20:12:37.818Z,23.40
2023-05-20T20:15:05.434Z,23.40
2023-05-20T20:17:33.726Z,23.30
2023-05-20T20:20:01.169Z,23.30
2023-05-20T20:22:28.180Z,23.20
2023-05-20T20:24:55.132Z,23.20
2023-05-20T20:27:23.842Z,23.20
2023-05-20T20:29:51.283Z,23.10
2023-05-20T20:32:18.492Z,23.10
2023-05-20T20:34:46.082Z,23.10
2023-05-20T20:37:15.078Z,23.10
2023-05-20T20:39:42.904Z,22.90
2023-05-20T20:42:10.597Z,23.00
2023-05-20T20:44:37.370Z,23.00
2023-05-20T20:47:04.592Z,22.90
2023-05-20T20:49:32.196Z,23.90
2023-05-20T20:51:59.292Z,22.90
2023-05-20T20:54:26.486Z,22.90
2023-05-20T20:56:56.497Z,22.90
2023-05-20T20:59:26.523Z,22.80
2023-05-20T21:01:53.976Z,22.80
2023-05-20T21:04:21.064Z,22.80
2023-05-20T21:06:48.048Z,22.80
2023-05-20T21:09:15.174Z,22.80
2023-05-20T21:11:42.380Z,22.70
2023-05-20T21:14:10.124Z,22.70
2023-05-20T21:16:37.169Z,22.70
2023-05-20T21:19:04.350Z,22.70
2023-05-20T21:21:31.734Z,22.70
2023-05-20T21:23:58.672Z,22.60
2023-05-20T21:26:25.792Z,22.60
2023-05-20T21:28:52.976Z,22.60
2023-05-20T21:31:20.087Z,22.60
2023-05-20T21:33:46.976Z,22.60
2023-05-20T21:36:13.987Z,22.50
2023-05-20T21:38:40.891Z,22.50
2023-05-20T21:41:08.109Z,22.50
2023-05-20T21:43:36.003Z,22.50
2023-05-20T21:46:03.152Z,22.40
2023-05-20T21:48:30.043Z,22.40
2023-05-20T21:50:56.876Z,22.40
2023-05-20T21:53:23.728Z,22.40
2023-05-20T21:55:51.226Z,22.30
2023-05-20T21:58:18.038Z,22.40
2023-05-20T22:00:45.138Z,22.30
2023-05-20T22:03:13.268Z,22.30
2023-05-20T22:05:41.228Z,22.30
2023-05-20T22:08:08.458Z,22.20
2023-05-20T22:10:36.513Z,22.30
2023-05-20T22:13:03.741Z,22.20
2023-05-20T22:15:31.397Z,22.20
2023-05-20T22:17:58.659Z,22.20
2023-05-20T22:20:25.666Z,22.20
2023-05-20T22:22:52.571Z,22.10
2023-05-20T22:25:19.516Z,22.10
2023-05-20T22:27:46.376Z,22.10
2023-05-20T22:30:13.546Z,22.10
2023-05-20T22:32:40.818Z,22.00
2023-05-20T22:35:08.405Z,22.00
2023-05-20T22:37:35.517Z,22.00
2023-05-20T22:40:02.444Z,22.00
2023-05-20T22:42:29.261Z,21.90
2023-05-20T22:44:56.079Z,21.90
2023-05-20T22:47:22.945Z,21.90
2023-05-20T22:49:50.761Z,21.90
2023-05-20T22:52:18.543Z,21.80
2023-05-20T22:54:45.616Z,21.80
2023-05-20T22:57:12.721Z,21.80
2023-05-20T22:59:40.368Z,21.70
2023-05-20T23:02:07.873Z,21.70
2023-05-20T23:04:34.883Z,21.70
2023-05-20T23:07:01.747Z,21.70
2023-05-20T23:09:28.674Z,21.70
2023-05-20T23:11:55.517Z,21.70
2023-05-20T23:14:22.925Z,21.70
2023-05-20T23:16:49.787Z,21.70
2023-05-20T23:19:16.854Z,21.60
2023-05-20T23:21:44.085Z,21.60
2023-05-20T23:24:11.956Z,21.60
2023-05-20T23:26:39.574Z,21.60
2023-05-20T23:29:06.540Z,21.60
2023-05-20T23:31:33.740Z,21.50
2023-05-20T23:34:03.514Z,21.60
2023-05-20T23:36:34.484Z,21.40
2023-05-20T23:39:04.459Z,21.70
2023-05-20T23:41:31.311Z,21.50
2023-05-20T23:43:58.125Z,21.50
2023-05-20T23:46:25.760Z,21.40
2023-05-20T23:48:53.758Z,21.40
2023-05-20T23:51:20.698Z,21.40
2023-05-20T23:53:47.686Z,21.50
2023-05-20T23:56:14.508Z,21.40
2023-05-20T23:58:41.317Z,21.40
